Time;durP1;ratioP1;P1;durP2;ratioP2;P2;SDS_P1;SDS_P2;PMS_P1;PMS_P2;Temp;Humidity;BMP_temperature;BMP_pressure;BME280_temperature;BME280_humidity;BME280_pressure;Samples;Min_cycle;Max_cycle;Signal;HPM_P1;HPM_P2
2022/11/02 00:02:21;;;;;;;;;0.00;0.00;;;;;12.74;77.29;101223.78;5050468;28;9474;-66
2022/11/02 00:04:48;;;;;;;;;2.00;2.00;;;;;12.76;77.23;101214.47;5050113;28;9326;-65
2022/11/02 00:07:14;;;;;;;;;0.00;0.00;;;;;12.82;77.07;101216.34;5050954;28;9466;-66
2022/11/02 00:09:41;;;;;;;;;0.00;0.00;;;;;12.72;76.60;101221.31;5049906;28;9614;-65
2022/11/02 00:12:07;;;;;;;;;2.00;0.00;;;;;12.68;76.90;101208.38;5047012;28;9310;-66
2022/11/02 00:14:33;;;;;;;;;1.00;1.00;;;;;12.67;76.71;101214.81;5050205;28;9373;-67
2022/11/02 00:17:00;;;;;;;;;4.00;1.00;;;;;12.65;76.70;101211.50;5049689;28;9395;-65
2022/11/02 00:19:28;;;;;;;;;0.00;0.00;;;;;12.67;76.79;101207.53;5050816;28;9307;-65
2022/11/02 00:21:55;;;;;;;;;2.00;1.00;;;;;12.72;76.89;101209.63;5047084;28;9398;-65
2022/11/02 00:24:22;;;;;;;;;1.00;0.00;;;;;12.79;76.76;101210.53;5050588;28;10291;-66
2022/11/02 00:26:48;;;;;;;;;2.67;2.00;;;;;12.77;76.47;101212.59;5050610;28;9257;-65
2022/11/02 00:29:15;;;;;;;;;3.25;2.00;;;;;12.68;76.80;101214.63;5050044;28;9286;-67
2022/11/02 00:31:41;;;;;;;;;1.00;1.00;;;;;12.69;77.61;101259.50;5045657;28;10173;-66
2022/11/02 00:34:08;;;;;;;;;1.50;1.50;;;;;12.73;77.83;101266.19;5050202;28;9512;-66
2022/11/02 00:36:34;;;;;;;;;1.00;1.00;;;;;12.44;76.95;101232.13;5050200;28;10190;-66
2022/11/02 00:39:01;;;;;;;;;1.00;1.00;;;;;12.38;77.64;101251.81;5050187;28;9458;-65
2022/11/02 00:41:27;;;;;;;;;2.00;2.00;;;;;12.32;78.38;101250.72;5046288;28;9483;-65
2022/11/02 00:43:53;;;;;;;;;2.00;2.00;;;;;12.32;78.44;101248.03;5062184;28;10339;-66
2022/11/02 00:46:20;;;;;;;;;5.25;2.00;;;;;12.18;78.00;101232.75;5048620;28;9481;-66
2022/11/02 00:48:46;;;;;;;;;1.00;1.00;;;;;12.14;78.18;101223.38;5049109;28;9547;-66
2022/11/02 00:51:13;;;;;;;;;0.25;0.00;;;;;11.97;77.08;101190.44;5050742;28;10463;-65
2022/11/02 00:53:41;;;;;;;;;1.00;0.00;;;;;11.88;76.59;101175.44;5048011;28;9654;-65
2022/11/02 00:56:07;;;;;;;;;0.00;0.00;;;;;11.76;76.12;101174.25;5048784;28;9542;-65
2022/11/02 00:58:34;;;;;;;;;0.50;0.00;;;;;11.67;75.45;101180.78;5048741;28;9446;-65
2022/11/02 01:01:05;;;;;;;;;0.00;0.00;;;;;11.65;75.47;101194.47;5046643;28;9519;-65
2022/11/02 01:03:32;;;;;;;;;0.00;0.00;;;;;11.69;75.27;101194.94;5046103;28;9477;-64
2022/11/02 01:05:58;;;;;;;;;0.00;0.00;;;;;11.63;74.94;101189.28;5048210;28;9491;-66
2022/11/02 01:08:24;;;;;;;;;0.00;0.00;;;;;11.68;74.67;101196.78;5049640;28;10059;-65
2022/11/02 01:10:51;;;;;;;;;0.00;0.00;;;;;11.70;74.32;101188.50;5046715;28;10532;-65
2022/11/02 01:13:17;;;;;;;;;0.00;0.00;;;;;11.67;74.19;101184.34;5049232;28;9681;-64
2022/11/02 01:15:44;;;;;;;;;0.00;0.00;;;;;11.68;74.04;101188.72;5049165;28;9516;-64
2022/11/02 01:18:10;;;;;;;;;0.00;0.00;;;;;11.65;74.18;101172.91;5049781;28;9474;-65
2022/11/02 01:20:36;;;;;;;;;0.25;0.00;;;;;11.61;74.05;101168.94;5047168;28;9643;-65
2022/11/02 01:23:03;;;;;;;;;0.00;0.00;;;;;11.65;73.99;101181.00;5047161;28;10446;-64
2022/11/02 01:25:29;;;;;;;;;1.00;0.00;;;;;11.68;73.89;101193.28;5050043;28;9596;-64
2022/11/02 01:27:56;;;;;;;;;0.00;0.00;;;;;11.62;73.85;101198.38;5048101;28;9685;-65
2022/11/02 01:30:22;;;;;;;;;0.00;0.00;;;;;11.69;74.34;101179.59;5048340;28;9611;-65
2022/11/02 01:32:48;;;;;;;;;1.00;0.00;;;;;11.72;74.12;101195.38;5048954;28;9666;-64
2022/11/02 01:35:15;;;;;;;;;0.00;0.00;;;;;11.68;73.71;101201.34;5049496;28;9739;-65
2022/11/02 01:37:41;;;;;;;;;0.00;0.00;;;;;11.60;73.31;101205.84;5064654;28;10153;-66
2022/11/02 01:40:08;;;;;;;;;0.00;0.00;;;;;11.50;72.86;101199.09;5053880;28;9603;-66
2022/11/02 01:42:35;;;;;;;;;0.00;0.00;;;;;11.53;73.14;101199.53;5061290;28;9576;-66
2022/11/02 01:45:02;;;;;;;;;1.00;0.00;;;;;11.59;72.61;101197.97;5049389;28;9761;-65
2022/11/02 01:47:32;;;;;;;;;0.00;0.00;;;;;11.63;72.42;101200.06;5049329;28;9735;-66
2022/11/02 01:50:07;;;;;;;;;0.00;0.00;;;;;11.72;72.15;101189.16;5048264;28;9601;-66
2022/11/02 01:52:36;;;;;;;;;0.00;0.00;;;;;11.63;72.08;101201.94;5048031;28;9680;-66
2022/11/02 01:55:12;;;;;;;;;1.00;0.00;;;;;11.52;71.68;101200.56;5049810;28;9663;-65
2022/11/02 01:57:40;;;;;;;;;0.75;0.75;;;;;11.56;71.72;101199.16;5048979;28;9611;-66
2022/11/02 02:00:11;;;;;;;;;0.00;0.00;;;;;11.52;72.06;101192.50;5064185;28;9611;-66
2022/11/02 02:03:04;;;;;;;;;0.00;0.00;;;;;11.57;72.27;101191.91;5048447;28;9521;-66
2022/11/02 02:05:33;;;;;;;;;0.00;0.00;;;;;11.50;71.90;101182.91;5041755;28;9599;-65
2022/11/02 02:08:01;;;;;;;;;0.00;0.00;;;;;11.53;72.44;101196.03;5049678;28;9595;-65
2022/11/02 02:10:30;;;;;;;;;0.00;0.00;;;;;11.54;72.50;101193.13;5049208;28;9652;-66
2022/11/02 02:12:56;;;;;;;;;0.00;0.00;;;;;11.60;72.46;101189.66;5046282;28;10333;-65
2022/11/02 02:15:26;;;;;;;;;1.00;0.00;;;;;11.65;72.34;101191.78;5048425;28;9606;-65
2022/11/02 02:18:01;;;;;;;;;2.00;0.00;;;;;11.56;72.37;101190.25;5041455;28;9659;-65
2022/11/02 02:20:47;;;;;;;;;0.00;0.00;;;;;11.51;72.47;101198.09;5044790;28;9636;-66
2022/11/02 02:23:42;;;;;;;;;0.00;0.00;;;;;11.48;72.46;101203.84;5050353;28;9511;-66
2022/11/02 02:26:46;;;;;;;;;0.75;0.00;;;;;11.58;72.88;101204.34;5050576;28;9740;-65
2022/11/02 02:29:21;;;;;;;;;0.50;0.00;;;;;11.51;72.56;101216.97;5047750;28;9675;-65
2022/11/02 02:32:06;;;;;;;;;0.75;0.00;;;;;11.49;73.00;101210.91;5068205;28;9758;-66
2022/11/02 02:35:14;;;;;;;;;0.00;0.00;;;;;11.55;73.10;101215.53;5043441;28;9753;-65
2022/11/02 02:37:50;;;;;;;;;1.50;0.00;;;;;11.39;73.05;101203.97;5048308;28;10287;-65
2022/11/02 02:40:33;;;;;;;;;0.00;0.00;;;;;11.47;74.00;101202.19;5048870;28;9837;-64
2022/11/02 02:43:10;;;;;;;;;1.00;0.00;;;;;11.46;73.94;101195.09;5063901;28;10412;-65
2022/11/02 02:45:46;;;;;;;;;1.00;1.00;;;;;11.53;73.71;101210.31;5051279;28;9807;-66
2022/11/02 02:48:22;;;;;;;;;0.00;0.00;;;;;11.54;74.22;101203.06;5051080;28;9615;-65
2022/11/02 02:50:53;;;;;;;;;1.00;1.00;;;;;11.51;74.76;101192.69;5033930;28;9892;-64
2022/11/02 02:53:27;;;;;;;;;0.00;0.00;;;;;11.51;75.14;101187.31;5052083;28;9674;-65
2022/11/02 02:55:58;;;;;;;;;2.00;1.00;;;;;11.44;75.52;101181.84;5051137;28;9592;-65
2022/11/02 02:58:30;;;;;;;;;0.00;0.00;;;;;11.47;75.84;101177.94;5048764;28;9671;-65
2022/11/02 03:00:59;;;;;;;;;0.00;0.00;;;;;11.47;75.98;101189.53;5051209;28;9811;-65
2022/11/02 03:03:28;;;;;;;;;0.00;0.00;;;;;11.50;75.47;101191.00;5050674;28;9724;-66
2022/11/02 03:06:03;;;;;;;;;1.00;1.00;;;;;11.47;75.46;101191.41;5051128;28;9801;-64
2022/11/02 03:08:38;;;;;;;;;0.75;0.75;;;;;11.43;75.70;101198.22;5050685;28;9662;-66
2022/11/02 03:11:15;;;;;;;;;0.50;0.00;;;;;11.55;76.03;101196.69;5048027;28;9662;-66
2022/11/02 03:14:01;;;;;;;;;0.00;0.00;;;;;11.64;75.64;101206.31;5048814;28;9673;-66
2022/11/02 03:17:01;;;;;;;;;0.00;0.00;;;;;11.61;75.43;101207.50;5050234;28;9596;-65
2022/11/02 03:19:38;;;;;;;;;0.75;0.75;;;;;11.67;75.51;101210.47;5063053;28;9679;-65
2022/11/02 03:22:22;;;;;;;;;0.00;0.00;;;;;11.70;75.50;101200.13;5049317;28;9559;-65
2022/11/02 03:24:54;;;;;;;;;1.00;0.00;;;;;11.69;76.10;101198.47;5065277;28;9669;-66
2022/11/02 03:27:28;;;;;;;;;0.75;0.25;;;;;11.66;76.09;101193.44;5057949;28;9703;-66
2022/11/02 03:30:06;;;;;;;;;1.00;0.00;;;;;11.69;76.01;101203.03;5025118;28;9652;-65
2022/11/02 03:32:54;;;;;;;;;1.00;1.00;;;;;11.63;76.21;101193.84;5050230;28;9435;-65
2022/11/02 03:35:31;;;;;;;;;0.25;0.25;;;;;11.57;76.31;101191.91;5059011;28;9668;-66
2022/11/02 03:38:04;;;;;;;;;5.25;3.00;;;;;11.50;76.71;101191.00;5050200;28;9754;-64
2022/11/02 03:40:41;;;;;;;;;2.00;2.00;;;;;11.49;77.09;101192.88;5043389;28;9824;-65
2022/11/02 03:43:08;;;;;;;;;1.00;1.00;;;;;11.53;77.17;101198.72;5047721;28;9864;-65
2022/11/02 03:45:39;;;;;;;;;1.00;0.00;;;;;11.55;77.06;101194.81;5051039;28;9768;-66
2022/11/02 03:48:09;;;;;;;;;2.00;1.00;;;;;11.53;77.38;101202.25;5041488;28;9692;-65
2022/11/02 03:50:38;;;;;;;;;1.00;0.00;;;;;11.44;77.62;101192.63;5043393;28;9695;-65
2022/11/02 03:53:48;;;;;;;;;1.00;1.00;;;;;11.43;77.89;101222.47;5049967;28;9808;-66
2022/11/02 03:56:34;;;;;;;;;1.50;1.50;;;;;11.51;78.03;101227.75;4990134;28;9823;-66
2022/11/02 03:59:01;;;;;;;;;0.75;0.00;;;;;11.62;77.89;101251.47;5049657;28;9821;-66
2022/11/02 04:01:29;;;;;;;;;0.00;0.00;;;;;11.69;77.75;101255.09;5050581;28;10403;-66
2022/11/02 04:03:56;;;;;;;;;0.25;0.25;;;;;11.73;77.74;101250.16;5046872;28;9707;-64
2022/11/02 04:06:24;;;;;;;;;2.00;1.00;;;;;11.74;77.57;101243.72;5052986;28;9901;-66
2022/11/02 04:08:51;;;;;;;;;1.00;1.00;;;;;11.72;77.91;101284.38;5049319;28;9724;-66
2022/11/02 04:14:36;;;;;;;;;2.00;2.00;;;;;11.69;77.88;101284.75;4975856;28;9871;-65
2022/11/02 04:19:52;;;;;;;;;1.50;1.50;;;;;11.63;79.08;101307.94;5056592;28;9992;-65
2022/11/02 04:25:14;;;;;;;;;1.50;0.75;;;;;11.39;79.01;101303.69;5049011;28;10109;-65
2022/11/02 04:27:48;;;;;;;;;1.00;1.00;;;;;11.39;79.52;101305.56;5048422;28;9661;-65
2022/11/02 04:30:18;;;;;;;;;5.00;1.00;;;;;11.37;79.45;101307.59;5040246;28;9735;-66
2022/11/02 04:35:38;;;;;;;;;1.25;1.25;;;;;11.44;79.82;101326.56;5042694;28;10039;-64
2022/11/02 04:41:40;;;;;;;;;2.00;2.00;;;;;11.55;79.67;101332.31;5047591;28;9846;-65
2022/11/02 04:43:43;;;;;;;;;2.00;1.00;;;;;11.54;79.58;101336.00;5044791;28;9787;-64
2022/11/02 04:46:10;;;;;;;;;2.00;2.00;;;;;11.57;79.70;101334.81;5048729;28;9760;-67
2022/11/02 04:48:37;;;;;;;;;1.00;1.00;;;;;11.56;79.89;101338.53;5042982;28;9771;-67
2022/11/02 04:51:04;;;;;;;;;5.75;1.00;;;;;11.55;79.67;101342.28;5047791;28;9820;-67
2022/11/02 04:53:31;;;;;;;;;2.50;2.00;;;;;11.57;79.88;101351.00;5048025;28;9745;-66
2022/11/02 04:55:57;;;;;;;;;1.25;1.25;;;;;11.59;79.79;101352.47;5064943;28;9904;-65
2022/11/02 04:58:24;;;;;;;;;1.00;1.00;;;;;11.59;80.03;101357.03;5048668;28;9665;-66
2022/11/02 05:00:52;;;;;;;;;2.00;2.00;;;;;11.66;79.73;101373.28;5048471;28;9745;-65
2022/11/02 05:03:19;;;;;;;;;0.00;0.00;;;;;11.71;79.54;101378.94;5046146;28;9754;-65
2022/11/02 05:05:45;;;;;;;;;2.00;0.00;;;;;11.68;79.47;101374.78;5046110;28;9589;-65
2022/11/02 05:08:12;;;;;;;;;0.25;0.25;;;;;11.72;79.41;101375.25;5048418;28;9732;-65
2022/11/02 05:10:38;;;;;;;;;3.75;0.25;;;;;11.70;79.15;101380.81;5048236;28;9724;-64
2022/11/02 05:13:05;;;;;;;;;2.25;2.25;;;;;11.69;79.44;101381.00;5048535;28;9658;-65
2022/11/02 05:15:34;;;;;;;;;0.00;0.00;;;;;11.71;79.39;101389.72;5057237;28;9730;-66
2022/11/02 05:18:04;;;;;;;;;1.00;0.00;;;;;11.73;79.15;101396.63;5048799;28;9542;-67
2022/11/02 05:20:33;;;;;;;;;0.00;0.00;;;;;11.70;78.95;101394.28;5045885;28;9683;-65
2022/11/02 05:22:59;;;;;;;;;0.25;0.25;;;;;11.71;78.96;101404.09;5063447;28;9600;-66
2022/11/02 05:25:26;;;;;;;;;1.00;1.00;;;;;11.71;78.89;101412.16;5049265;28;9686;-66
2022/11/02 05:27:55;;;;;;;;;0.00;0.00;;;;;11.67;79.09;101416.28;5048632;28;9898;-65
2022/11/02 05:30:22;;;;;;;;;1.00;1.00;;;;;11.68;79.05;101419.78;5049289;28;9659;-64
2022/11/02 05:32:48;;;;;;;;;4.00;0.50;;;;;11.70;78.73;101429.34;5047714;28;9837;-65
2022/11/02 05:35:16;;;;;;;;;0.00;0.00;;;;;11.69;78.38;101425.00;5047679;28;9745;-64
2022/11/02 05:37:43;;;;;;;;;1.00;1.00;;;;;11.67;78.05;101424.34;5047955;28;9851;-64
2022/11/02 05:40:10;;;;;;;;;0.50;0.50;;;;;11.64;78.02;101424.72;5038890;28;9812;-65
2022/11/02 05:42:37;;;;;;;;;1.00;0.00;;;;;11.63;77.71;101436.53;5046608;28;9745;-65
2022/11/02 05:45:04;;;;;;;;;0.00;0.00;;;;;11.56;77.46;101444.53;5048256;28;9748;-65
2022/11/02 05:47:32;;;;;;;;;2.00;1.00;;;;;11.56;77.08;101463.41;5048409;28;9755;-64
2022/11/02 05:49:58;;;;;;;;;1.00;0.00;;;;;11.52;76.85;101456.72;5049127;28;9731;-66
2022/11/02 05:52:24;;;;;;;;;1.00;0.00;;;;;11.54;76.66;101465.44;5049341;28;9617;-66
2022/11/02 05:54:51;;;;;;;;;0.00;0.00;;;;;11.50;76.57;101463.28;5052950;28;10398;-63
2022/11/02 05:57:17;;;;;;;;;0.00;0.00;;;;;11.42;76.25;101472.31;5053060;28;9628;-64
2022/11/02 05:59:44;;;;;;;;;0.00;0.00;;;;;11.40;75.96;101477.06;5051393;28;9573;-65
2022/11/02 06:02:14;;;;;;;;;0.00;0.00;;;;;11.38;75.49;101489.88;5067666;28;10514;-66
2022/11/02 06:04:41;;;;;;;;;0.25;0.25;;;;;11.37;75.34;101488.19;5053093;28;9667;-66
2022/11/02 06:07:07;;;;;;;;;1.00;0.00;;;;;11.43;75.03;101492.88;5049236;28;9677;-65
2022/11/02 06:09:33;;;;;;;;;0.75;0.75;;;;;11.45;75.18;101504.28;5052555;28;9605;-65
2022/11/02 06:12:00;;;;;;;;;0.00;0.00;;;;;11.48;75.18;101508.50;5051396;28;9600;-65
2022/11/02 06:14:26;;;;;;;;;0.75;0.00;;;;;11.48;74.67;101512.03;5051746;28;10319;-66
2022/11/02 06:16:53;;;;;;;;;2.00;0.25;;;;;11.46;74.84;101516.75;5051994;28;9623;-66
2022/11/02 06:19:19;;;;;;;;;0.00;0.00;;;;;11.45;74.34;101517.78;5052754;28;9592;-65
2022/11/02 06:21:45;;;;;;;;;0.00;0.00;;;;;11.42;74.27;101514.59;5047898;28;9591;-66
2022/11/02 06:24:14;;;;;;;;;0.00;0.00;;;;;11.43;73.90;101527.09;5052078;28;9665;-65
2022/11/02 06:26:40;;;;;;;;;0.25;0.00;;;;;11.36;73.66;101535.88;5051658;28;9660;-65
2022/11/02 06:29:06;;;;;;;;;1.00;0.00;;;;;11.43;73.19;101544.09;5052758;28;9715;-64
2022/11/02 06:31:33;;;;;;;;;0.00;0.00;;;;;11.46;73.07;101551.78;5051993;28;9589;-66
2022/11/02 06:33:59;;;;;;;;;0.00;0.00;;;;;11.46;72.81;101551.78;5052263;28;9654;-64
2022/11/02 06:36:26;;;;;;;;;2.50;0.75;;;;;11.48;72.66;101567.81;5047953;28;9876;-65
2022/11/02 06:38:52;;;;;;;;;0.75;0.00;;;;;11.50;72.29;101557.66;5051372;28;9662;-66
2022/11/02 06:41:18;;;;;;;;;1.25;0.00;;;;;11.45;71.77;101584.34;5051502;28;10404;-64
2022/11/02 06:43:45;;;;;;;;;0.00;0.00;;;;;11.49;71.56;101580.25;5049920;28;9689;-64
2022/11/02 06:46:11;;;;;;;;;0.00;0.00;;;;;11.53;71.31;101595.06;5046578;28;9755;-64
2022/11/02 06:48:37;;;;;;;;;0.00;0.00;;;;;11.53;71.32;101592.34;5048676;28;9754;-64
2022/11/02 06:51:05;;;;;;;;;1.25;0.00;;;;;11.55;71.00;101601.94;5050706;28;9587;-65
2022/11/02 06:53:32;;;;;;;;;0.00;0.00;;;;;11.56;70.76;101603.63;5048986;28;9616;-69
2022/11/02 06:55:58;;;;;;;;;0.00;0.00;;;;;11.49;70.66;101605.34;5051838;28;9592;-65
2022/11/02 06:58:25;;;;;;;;;0.00;0.00;;;;;11.52;70.34;101620.34;5051354;28;9597;-66
2022/11/02 07:01:00;;;;;;;;;1.75;0.00;;;;;11.52;70.42;101621.19;5050411;28;9749;-67
2022/11/02 07:03:28;;;;;;;;;0.00;0.00;;;;;11.50;70.59;101635.84;5050615;28;9699;-66
2022/11/02 07:05:55;;;;;;;;;2.00;2.00;;;;;11.45;70.34;101647.19;5051637;28;10239;-65
2022/11/02 07:08:22;;;;;;;;;1.00;0.00;;;;;11.50;70.22;101647.47;5051201;28;9924;-65
2022/11/02 07:10:48;;;;;;;;;1.25;0.00;;;;;11.56;70.53;101660.25;5049450;28;9669;-66
2022/11/02 07:13:15;;;;;;;;;1.50;0.00;;;;;11.57;69.91;101663.78;5051386;28;9675;-64
2022/11/02 07:15:42;;;;;;;;;0.75;0.75;;;;;11.59;69.65;101667.97;5052058;28;9497;-65
2022/11/02 07:18:08;;;;;;;;;1.00;0.00;;;;;11.59;69.30;101665.28;5051726;28;10378;-66
2022/11/02 07:20:36;;;;;;;;;0.00;0.00;;;;;11.60;69.40;101676.91;5050931;28;9511;-66
2022/11/02 07:23:03;;;;;;;;;0.50;0.00;;;;;11.60;68.95;101685.81;5051402;28;9689;-66
2022/11/02 07:25:32;;;;;;;;;0.75;0.00;;;;;11.58;68.91;101690.53;5051459;28;9750;-66
2022/11/02 07:28:00;;;;;;;;;1.00;1.00;;;;;11.67;68.63;101694.03;5051428;28;9612;-66
2022/11/02 07:30:31;;;;;;;;;0.25;0.25;;;;;11.64;68.50;101697.09;5050589;28;9634;-66
2022/11/02 07:32:57;;;;;;;;;0.00;0.00;;;;;11.66;68.24;101696.91;5051055;28;9640;-66
2022/11/02 07:35:24;;;;;;;;;0.00;0.00;;;;;11.67;68.22;101698.56;5051214;28;9475;-66
2022/11/02 07:37:58;;;;;;;;;1.50;0.25;;;;;11.67;68.26;101702.13;5051390;28;9471;-67
2022/11/02 07:40:26;;;;;;;;;1.00;1.00;;;;;11.73;67.82;101706.78;5042590;28;9557;-65
2022/11/02 07:42:53;;;;;;;;;0.00;0.00;;;;;11.83;67.17;101715.53;5051019;28;9582;-66
2022/11/02 07:45:28;;;;;;;;;0.00;0.00;;;;;11.92;67.75;101710.91;5049728;28;10338;-66
2022/11/02 07:47:54;;;;;;;;;0.00;0.00;;;;;11.88;67.02;101720.38;5051137;28;9620;-67
2022/11/02 07:50:22;;;;;;;;;1.00;0.75;;;;;11.89;66.62;101724.75;5050753;28;9535;-67
2022/11/02 07:52:54;;;;;;;;;2.00;1.00;;;;;12.00;65.99;101732.41;5050427;28;9527;-67
2022/11/02 07:55:23;;;;;;;;;1.00;0.00;;;;;12.05;66.15;101729.16;5051113;28;9543;-67
2022/11/02 07:58:00;;;;;;;;;1.00;0.00;;;;;11.98;65.70;101741.69;5050831;28;9521;-67
2022/11/02 08:00:30;;;;;;;;;0.00;0.00;;;;;12.05;65.46;101737.25;5049175;28;9577;-66
2022/11/02 08:02:58;;;;;;;;;1.25;0.00;;;;;12.06;65.18;101730.84;5045486;28;9801;-65
2022/11/02 08:05:27;;;;;;;;;0.00;0.00;;;;;12.12;65.00;101747.16;5051032;28;9612;-64
2022/11/02 08:08:02;;;;;;;;;0.25;0.25;;;;;12.19;64.65;101757.19;5050365;28;9534;-64
2022/11/02 08:10:31;;;;;;;;;0.00;0.00;;;;;12.29;64.80;101758.63;5050326;28;9553;-64
2022/11/02 08:13:08;;;;;;;;;0.00;0.00;;;;;12.32;64.51;101757.44;5045604;28;9630;-67
2022/11/02 08:15:35;;;;;;;;;0.00;0.00;;;;;12.34;64.33;101758.06;5050431;28;9520;-66
2022/11/02 08:18:14;;;;;;;;;0.00;0.00;;;;;12.37;64.58;101755.03;5050549;28;9589;-69
2022/11/02 08:20:41;;;;;;;;;0.00;0.00;;;;;12.34;64.37;101764.31;5049953;28;10065;-66
2022/11/02 08:23:09;;;;;;;;;1.00;1.00;;;;;12.39;64.29;101766.47;5048968;28;9464;-67
2022/11/02 08:25:37;;;;;;;;;0.00;0.00;;;;;12.43;64.35;101769.63;5050752;28;9458;-67
2022/11/02 08:28:05;;;;;;;;;0.00;0.00;;;;;12.50;64.44;101774.13;5049718;28;9501;-68
2022/11/02 08:30:32;;;;;;;;;0.00;0.00;;;;;12.51;64.43;101770.38;5050141;28;9450;-68
2022/11/02 08:33:06;;;;;;;;;0.00;0.00;;;;;12.48;64.02;101776.19;5047968;28;9436;-68
2022/11/02 08:35:35;;;;;;;;;0.00;0.00;;;;;12.47;64.01;101777.19;5050172;28;9304;-67
2022/11/02 08:38:01;;;;;;;;;1.00;0.00;;;;;12.61;64.14;101778.25;5049799;28;9308;-67
2022/11/02 08:40:29;;;;;;;;;0.00;0.00;;;;;12.68;64.04;101781.88;5049857;28;9369;-67
2022/11/02 08:42:58;;;;;;;;;0.00;0.00;;;;;12.71;64.17;101784.19;5049476;28;9478;-67
2022/11/02 08:45:25;;;;;;;;;0.33;0.33;;;;;12.76;64.49;101780.94;5049141;28;9359;-67
2022/11/02 08:47:52;;;;;;;;;1.67;0.00;;;;;12.84;63.69;101786.25;5049756;28;9375;-66
2022/11/02 08:50:18;;;;;;;;;0.00;0.00;;;;;12.82;63.67;101785.59;5049347;28;9313;-67
2022/11/02 08:52:45;;;;;;;;;0.00;0.00;;;;;12.84;63.34;101786.25;5049468;28;9308;-69
2022/11/02 08:55:11;;;;;;;;;2.00;0.00;;;;;12.89;63.18;101788.41;5049106;28;9300;-67
2022/11/02 08:57:48;;;;;;;;;0.00;0.00;;;;;12.89;62.82;101791.97;5049372;28;9314;-67
2022/11/02 09:00:17;;;;;;;;;0.00;0.00;;;;;12.90;62.54;101799.03;5049214;28;9409;-68
2022/11/02 09:02:43;;;;;;;;;1.25;1.00;;;;;12.92;62.28;101801.53;5043920;28;9348;-66
2022/11/02 09:05:10;;;;;;;;;0.00;0.00;;;;;12.92;61.90;101805.06;5049458;28;9434;-65
2022/11/02 09:07:36;;;;;;;;;0.00;0.00;;;;;13.00;62.23;101812.25;5049500;28;9300;-65
2022/11/02 09:10:03;;;;;;;;;2.00;1.00;;;;;13.07;62.16;101818.59;5049247;28;9408;-65
2022/11/02 09:12:30;;;;;;;;;0.67;0.00;;;;;13.04;61.54;101814.38;5046699;28;9243;-66
2022/11/02 09:14:56;;;;;;;;;0.00;0.00;;;;;13.09;61.41;101824.66;5050044;28;9371;-64
2022/11/02 09:17:22;;;;;;;;;0.00;0.00;;;;;13.09;60.73;101825.50;5049268;28;9311;-65
2022/11/02 09:19:49;;;;;;;;;0.00;0.00;;;;;13.23;60.69;101828.41;5049571;28;9237;-65
2022/11/02 09:22:15;;;;;;;;;0.00;0.00;;;;;13.29;60.45;101836.63;5048536;28;9304;-64
2022/11/02 09:24:42;;;;;;;;;0.00;0.00;;;;;13.27;59.84;101830.56;5049647;28;9158;-65
2022/11/02 09:27:08;;;;;;;;;0.67;0.00;;;;;13.32;59.69;101846.22;5049142;28;9274;-67
2022/11/02 09:29:34;;;;;;;;;0.00;0.00;;;;;13.32;59.08;101841.63;5049254;28;9136;-66
2022/11/02 09:32:01;;;;;;;;;0.00;0.00;;;;;13.40;58.81;101846.09;5053026;28;9388;-66
2022/11/02 09:34:27;;;;;;;;;0.00;0.00;;;;;13.40;59.23;101850.69;5052587;28;9333;-67
2022/11/02 09:36:53;;;;;;;;;0.33;0.33;;;;;13.25;58.91;101854.25;5053047;28;9465;-65
2022/11/02 09:39:23;;;;;;;;;0.00;0.00;;;;;13.27;58.98;101857.59;5053372;28;9300;-65
2022/11/02 09:42:02;;;;;;;;;0.00;0.00;;;;;13.32;59.08;101849.75;5053653;28;9300;-64
2022/11/02 09:44:46;;;;;;;;;1.00;0.00;;;;;13.33;58.96;101862.25;5053297;28;9323;-64
2022/11/02 09:47:13;;;;;;;;;0.33;0.00;;;;;13.20;59.01;101872.84;5049915;28;9308;-64
2022/11/02 09:50:01;;;;;;;;;1.00;1.00;;;;;13.17;59.56;101875.09;5048289;28;9231;-65
2022/11/02 09:52:34;;;;;;;;;0.00;0.00;;;;;13.17;60.43;101875.09;5053038;28;9410;-63
2022/11/02 09:55:10;;;;;;;;;1.00;0.33;;;;;13.22;59.80;101868.09;5053095;28;10027;-64
2022/11/02 09:57:41;;;;;;;;;1.33;0.33;;;;;13.20;59.92;101877.41;5052557;28;9235;-65
2022/11/02 10:00:12;;;;;;;;;0.00;0.00;;;;;13.24;60.61;101879.59;5053180;28;9385;-66
2022/11/02 10:03:08;;;;;;;;;1.00;1.00;;;;;13.30;59.97;101878.03;5052482;28;10151;-64
2022/11/02 10:05:45;;;;;;;;;0.33;0.00;;;;;13.36;59.63;101880.78;5051770;28;9471;-66
2022/11/02 10:08:42;;;;;;;;;2.00;1.00;;;;;13.28;58.68;101885.47;5048745;28;9239;-64
2022/11/02 10:11:36;;;;;;;;;0.00;0.00;;;;;13.39;58.76;101881.47;5048321;28;9438;-63
2022/11/02 10:14:19;;;;;;;;;2.00;1.00;;;;;13.35;58.37;101891.81;5048467;28;9264;-66
2022/11/02 10:16:57;;;;;;;;;1.00;0.00;;;;;13.42;58.77;101892.75;5052591;28;9219;-65
2022/11/02 10:19:26;;;;;;;;;0.00;0.00;;;;;13.46;58.29;101887.81;5051506;28;9292;-64
2022/11/02 10:21:57;;;;;;;;;0.67;0.00;;;;;13.41;58.32;101895.63;5053063;28;9153;-64
2022/11/02 10:24:41;;;;;;;;;0.00;0.00;;;;;13.38;57.70;101902.25;5052497;28;9381;-65
2022/11/02 10:27:29;;;;;;;;;0.00;0.00;;;;;13.39;57.58;101886.88;5047300;28;9508;-63
2022/11/02 10:30:13;;;;;;;;;1.00;0.00;;;;;13.38;57.74;101885.19;5051144;28;10104;-64
2022/11/02 10:32:41;;;;;;;;;0.00;0.00;;;;;13.44;57.60;101882.56;5052185;28;10089;-65
2022/11/02 10:35:18;;;;;;;;;2.00;0.00;;;;;13.52;57.69;101895.16;5052391;28;9669;-65
2022/11/02 10:38:30;;;;;;;;;1.00;0.00;;;;;13.50;57.60;101889.94;5052060;28;9219;-64
2022/11/02 10:41:24;;;;;;;;;0.00;0.00;;;;;13.57;57.65;101893.59;5044803;28;9335;-64
2022/11/02 10:44:08;;;;;;;;;1.00;1.00;;;;;13.65;57.71;101898.03;5052046;28;9297;-65
2022/11/02 10:47:15;;;;;;;;;0.67;0.00;;;;;13.56;56.70;101908.13;5052279;28;9273;-66
2022/11/02 10:50:01;;;;;;;;;1.00;0.00;;;;;13.59;56.75;101909.63;5048948;28;9332;-67
2022/11/02 10:52:37;;;;;;;;;0.33;0.33;;;;;13.63;57.14;101907.38;5051696;28;9254;-67
2022/11/02 10:55:07;;;;;;;;;0.00;0.00;;;;;13.65;57.07;101913.44;5044465;28;9285;-67
2022/11/02 10:57:38;;;;;;;;;0.00;0.00;;;;;13.77;57.35;101907.38;5051621;28;9323;-67
2022/11/02 11:00:27;;;;;;;;;0.00;0.00;;;;;13.84;57.48;101910.13;5049737;28;9161;-67
2022/11/02 11:03:12;;;;;;;;;0.00;0.00;;;;;14.01;57.98;101902.63;5051390;28;10035;-66
2022/11/02 11:06:03;;;;;;;;;0.00;0.00;;;;;13.98;57.54;101917.41;5051741;28;9923;-65
2022/11/02 11:08:41;;;;;;;;;0.00;0.00;;;;;13.99;57.52;101908.25;5048535;28;9186;-64
2022/11/02 11:11:20;;;;;;;;;1.00;0.00;;;;;14.04;57.37;101910.38;5043755;28;9227;-64
2022/11/02 11:14:16;;;;;;;;;1.00;0.00;;;;;14.05;57.53;101915.59;5051459;28;9976;-66
2022/11/02 11:17:14;;;;;;;;;0.00;0.00;;;;;14.09;57.36;101911.47;5050855;28;9067;-68
2022/11/02 11:20:05;;;;;;;;;2.00;0.00;;;;;13.95;58.27;101920.47;5050062;28;9155;-66
2022/11/02 11:22:38;;;;;;;;;1.33;1.33;;;;;13.88;59.21;101918.72;5049827;28;8983;-67
2022/11/02 11:25:20;;;;;;;;;1.00;0.00;;;;;13.93;59.77;101916.28;5051173;28;9079;-67
2022/11/02 11:27:58;;;;;;;;;0.00;0.00;;;;;13.92;59.71;101911.91;5051244;28;9143;-67
2022/11/02 11:30:30;;;;;;;;;0.00;0.00;;;;;13.92;59.83;101911.91;5051243;28;9829;-67
2022/11/02 11:33:19;;;;;;;;;1.00;0.00;;;;;13.72;59.25;101908.94;5049206;28;9158;-67
2022/11/02 11:35:48;;;;;;;;;0.67;0.33;;;;;13.72;59.30;101920.59;5051919;28;9075;-66
2022/11/02 11:38:18;;;;;;;;;0.00;0.00;;;;;13.85;58.30;101909.09;5051233;28;8986;-66
2022/11/02 11:40:52;;;;;;;;;0.00;0.00;;;;;13.99;58.13;101905.53;5051349;28;9059;-67
2022/11/02 11:43:22;;;;;;;;;0.67;0.00;;;;;14.12;57.41;101901.28;5049286;28;9014;-67
2022/11/02 11:46:03;;;;;;;;;1.00;0.00;;;;;14.22;57.25;101915.34;5051114;28;9158;-68
2022/11/02 11:48:46;;;;;;;;;0.00;0.00;;;;;14.25;57.32;101918.50;5048636;28;8965;-67
2022/11/02 11:51:26;;;;;;;;;0.67;0.00;;;;;14.19;56.94;101921.16;5049977;28;9071;-67
2022/11/02 11:54:22;;;;;;;;;0.00;0.00;;;;;14.32;56.66;101930.25;5050791;28;9217;-66
2022/11/02 11:56:51;;;;;;;;;0.33;0.00;;;;;14.26;56.02;101927.47;5045825;28;9055;-66
2022/11/02 11:59:31;;;;;;;;;0.00;0.00;;;;;14.28;56.38;101917.31;5050360;28;9055;-67
2022/11/02 12:01:59;;;;;;;;;1.00;0.00;;;;;14.22;55.94;101915.34;5049714;28;10073;-67
2022/11/02 12:04:31;;;;;;;;;0.67;0.67;;;;;14.27;55.56;101916.47;5050231;28;9006;-67
2022/11/02 12:07:19;;;;;;;;;2.00;0.00;;;;;14.43;55.92;101906.41;5050659;28;9111;-67
2022/11/02 12:10:04;;;;;;;;;0.67;0.67;;;;;14.51;56.55;101906.31;5044967;28;9079;-67